Time;durP1;ratioP1;P1;durP2;ratioP2;P2;SDS_P1;SDS_P2;PMS_P1;PMS_P2;Temp;Humidity;BMP_temperature;BMP_pressure;BME280_temperature;BME280_humidity;BME280_pressure;Samples;Min_cycle;Max_cycle;Signal;HPM_P1;HPM_P2
2023/08/04 00:01:57;;;;;;;;;1.00;1.00;;;;;;;;5068664;28;8884;-75
2023/08/04 00:04:23;;;;;;;;;1.00;1.00;;;;;;;;5068798;28;8804;-75
2023/08/04 00:06:48;;;;;;;;;1.00;1.00;;;;;;;;5069980;28;8807;-76
2023/08/04 00:09:13;;;;;;;;;1.67;1.00;;;;;;;;5068666;28;8832;-76
2023/08/04 00:11:38;;;;;;;;;1.00;1.00;;;;;;;;5070023;28;8792;-76
2023/08/04 00:14:04;;;;;;;;;1.67;1.00;;;;;;;;5068733;28;8815;-76
2023/08/04 00:16:29;;;;;;;;;2.67;1.00;;;;;;;;5069766;28;9665;-76
2023/08/04 00:18:54;;;;;;;;;2.00;1.00;;;;;;;;5068652;28;8870;-76
2023/08/04 00:21:19;;;;;;;;;2.33;1.00;;;;;;;;5068525;28;8891;-76
2023/08/04 00:23:44;;;;;;;;;2.00;2.00;;;;;;;;5070249;28;8800;-76
2023/08/04 00:26:10;;;;;;;;;3.00;1.00;;;;;;;;5070156;28;8816;-76
2023/08/04 00:28:35;;;;;;;;;1.00;1.00;;;;;;;;5070084;28;8824;-76
2023/08/04 00:31:01;;;;;;;;;1.67;1.00;;;;;;;;5070484;28;8791;-77
2023/08/04 00:33:26;;;;;;;;;2.67;2.00;;;;;;;;5068976;28;8792;-76
2023/08/04 00:35:51;;;;;;;;;2.00;2.00;;;;;;;;5070198;28;8845;-76
2023/08/04 00:38:16;;;;;;;;;3.00;2.00;;;;;;;;5068530;28;8823;-76
2023/08/04 00:40:42;;;;;;;;;4.00;3.00;;;;;;;;5070070;28;8792;-76
2023/08/04 00:43:07;;;;;;;;;4.33;3.00;;;;;;;;5069727;28;8800;-76
2023/08/04 00:45:33;;;;;;;;;4.67;3.00;;;;;;;;5071334;28;8828;-76
2023/08/04 00:47:58;;;;;;;;;4.00;3.00;;;;;;;;5071966;28;8864;-76
2023/08/04 00:50:24;;;;;;;;;2.67;2.67;;;;;;;;5073476;28;8796;-75
2023/08/04 00:52:50;;;;;;;;;4.00;3.67;;;;;;;;5073348;28;8885;-75
2023/08/04 00:55:16;;;;;;;;;4.50;3.00;;;;;;;;5074179;22;8875;-70
2023/08/04 00:57:42;;;;;;;;;4.00;3.75;;;;;;;;5032389;28;8832;-70
2023/08/04 01:00:08;;;;;;;;;4.00;2.00;;;;;;;;5032298;28;8796;-70
2023/08/04 01:02:33;;;;;;;;;2.67;2.67;;;;;;;;5032372;28;8908;-70
2023/08/04 01:05:02;;;;;;;;;4.00;3.00;;;;;;;;5032436;28;8799;-70
2023/08/04 01:07:30;;;;;;;;;2.75;2.00;;;;;;;;5032109;28;8823;-70
2023/08/04 01:10:14;;;;;;;;;4.00;4.00;;;;;;;;5031026;28;9546;-70
2023/08/04 01:12:48;;;;;;;;;3.00;2.00;;;;;;;;5032272;28;8808;-71
2023/08/04 01:15:14;;;;;;;;;2.75;2.75;;;;;;;;5031996;28;8791;-70
2023/08/04 01:17:40;;;;;;;;;4.25;2.00;;;;;;;;5032106;28;8978;-71
2023/08/04 01:20:05;;;;;;;;;4.67;3.00;;;;;;;;5032138;28;8764;-71
2023/08/04 01:22:31;;;;;;;;;3.33;2.00;;;;;;;;5032202;28;8780;-70
2023/08/04 01:24:56;;;;;;;;;3.00;3.00;;;;;;;;5032052;28;8772;-71
2023/08/04 01:27:37;;;;;;;;;2.67;1.00;;;;;;;;5031858;28;9475;-70
2023/08/04 01:30:03;;;;;;;;;3.00;3.00;;;;;;;;5031992;28;8822;-70
2023/08/04 01:32:29;;;;;;;;;5.50;3.00;;;;;;;;5030507;28;9609;-70
2023/08/04 01:34:54;;;;;;;;;2.67;2.67;;;;;;;;5031836;28;8808;-71
2023/08/04 01:37:19;;;;;;;;;2.67;2.67;;;;;;;;5031716;28;8812;-71
2023/08/04 01:39:45;;;;;;;;;3.33;2.00;;;;;;;;5030298;28;8804;-69
2023/08/04 01:42:10;;;;;;;;;3.00;3.00;;;;;;;;5031688;28;8854;-70
2023/08/04 01:44:36;;;;;;;;;4.00;4.00;;;;;;;;5031428;28;8784;-70
2023/08/04 01:47:01;;;;;;;;;5.33;3.67;;;;;;;;5031426;28;8885;-70
2023/08/04 01:49:26;;;;;;;;;4.33;3.00;;;;;;;;5031671;28;9539;-70
2023/08/04 01:51:51;;;;;;;;;3.00;3.00;;;;;;;;5031589;28;8799;-70
2023/08/04 01:54:17;;;;;;;;;4.67;4.00;;;;;;;;5031694;28;8811;-69
2023/08/04 01:56:42;;;;;;;;;3.00;2.33;;;;;;;;5031210;28;8825;-70
2023/08/04 01:59:07;;;;;;;;;4.33;3.00;;;;;;;;5029785;28;8815;-70
2023/08/04 02:01:32;;;;;;;;;2.33;1.67;;;;;;;;5031385;28;8885;-70
2023/08/04 02:03:58;;;;;;;;;4.33;2.00;;;;;;;;5029934;28;8816;-70
2023/08/04 02:06:23;;;;;;;;;3.00;3.00;;;;;;;;5031111;28;8946;-70
2023/08/04 02:08:48;;;;;;;;;4.00;4.00;;;;;;;;5031126;28;8844;-69
2023/08/04 02:11:13;;;;;;;;;3.33;3.33;;;;;;;;5031085;28;8787;-70
2023/08/04 02:13:39;;;;;;;;;3.33;3.00;;;;;;;;5031088;28;8941;-70
2023/08/04 02:16:04;;;;;;;;;4.33;3.67;;;;;;;;5029407;28;8812;-70
2023/08/04 02:18:29;;;;;;;;;3.00;3.00;;;;;;;;5030838;28;8784;-69
2023/08/04 02:20:55;;;;;;;;;4.00;2.00;;;;;;;;5030981;28;8846;-70
2023/08/04 02:23:20;;;;;;;;;4.00;2.00;;;;;;;;5030689;28;8788;-70
2023/08/04 02:25:45;;;;;;;;;3.67;3.33;;;;;;;;5029486;28;8901;-69
2023/08/04 02:28:10;;;;;;;;;7.00;4.00;;;;;;;;5030328;28;8824;-70
2023/08/04 02:30:36;;;;;;;;;2.00;2.00;;;;;;;;5030066;28;8811;-70
2023/08/04 02:33:01;;;;;;;;;5.00;3.00;;;;;;;;5030466;28;8810;-70
2023/08/04 02:35:26;;;;;;;;;3.00;3.00;;;;;;;;5030538;28;8804;-70
2023/08/04 02:37:51;;;;;;;;;2.33;2.33;;;;;;;;5030419;28;8822;-70
2023/08/04 02:40:17;;;;;;;;;4.00;4.00;;;;;;;;5030602;28;8885;-70
2023/08/04 02:42:42;;;;;;;;;3.67;3.67;;;;;;;;5030258;28;8796;-70
2023/08/04 02:45:08;;;;;;;;;2.33;2.33;;;;;;;;5030196;28;8807;-71
2023/08/04 02:47:33;;;;;;;;;3.00;3.00;;;;;;;;5030052;28;8808;-71
2023/08/04 02:49:58;;;;;;;;;3.67;2.00;;;;;;;;5030121;28;8816;-71
2023/08/04 02:52:23;;;;;;;;;2.00;2.00;;;;;;;;5030051;28;8838;-70
2023/08/04 02:54:53;;;;;;;;;3.00;3.00;;;;;;;;5030688;28;8929;-71
2023/08/04 02:57:18;;;;;;;;;3.00;2.00;;;;;;;;5030023;28;8922;-70
2023/08/04 02:59:44;;;;;;;;;1.00;1.00;;;;;;;;5029822;28;8873;-71
2023/08/04 03:02:09;;;;;;;;;3.33;2.67;;;;;;;;5030387;28;8902;-70
2023/08/04 03:04:34;;;;;;;;;3.00;2.00;;;;;;;;5030372;28;9669;-70
2023/08/04 03:07:00;;;;;;;;;2.00;2.00;;;;;;;;5029375;28;8804;-72
2023/08/04 03:09:25;;;;;;;;;3.00;1.67;;;;;;;;5029417;28;8846;-71
2023/08/04 03:11:50;;;;;;;;;3.00;3.00;;;;;;;;5028376;28;8826;-70
2023/08/04 03:14:15;;;;;;;;;3.67;2.33;;;;;;;;5027909;28;8799;-70
2023/08/04 03:16:41;;;;;;;;;3.00;2.33;;;;;;;;5027771;28;8871;-70
2023/08/04 03:19:06;;;;;;;;;5.00;3.00;;;;;;;;5028055;28;8803;-70
2023/08/04 03:21:31;;;;;;;;;4.00;2.00;;;;;;;;5028037;28;8810;-70
2023/08/04 03:23:56;;;;;;;;;3.00;3.00;;;;;;;;5027953;28;8823;-70
2023/08/04 03:26:22;;;;;;;;;4.33;2.33;;;;;;;;5028125;28;8888;-70
2023/08/04 03:28:47;;;;;;;;;1.00;1.00;;;;;;;;5029713;28;9666;-71
2023/08/04 03:31:12;;;;;;;;;4.00;3.00;;;;;;;;5029622;28;8772;-70
2023/08/04 03:33:37;;;;;;;;;4.33;3.00;;;;;;;;5029700;28;8842;-70
2023/08/04 03:36:03;;;;;;;;;4.33;3.00;;;;;;;;5029549;28;8826;-71
2023/08/04 03:38:28;;;;;;;;;1.00;0.00;;;;;;;;5028294;28;8811;-70
2023/08/04 03:40:54;;;;;;;;;3.00;3.00;;;;;;;;5029552;28;8869;-70
2023/08/04 03:43:19;;;;;;;;;4.00;3.00;;;;;;;;5029643;28;9538;-70
2023/08/04 03:45:44;;;;;;;;;9.00;4.00;;;;;;;;5029311;28;8800;-70
2023/08/04 03:48:10;;;;;;;;;4.00;4.00;;;;;;;;5029444;28;9511;-70
2023/08/04 03:50:35;;;;;;;;;3.00;2.00;;;;;;;;5029536;28;8803;-70
2023/08/04 03:53:00;;;;;;;;;2.67;2.67;;;;;;;;5029466;28;9045;-70
2023/08/04 03:55:27;;;;;;;;;3.00;3.00;;;;;;;;5028335;28;8815;-70
2023/08/04 03:57:52;;;;;;;;;3.25;2.00;;;;;;;;5028133;28;8836;-70
2023/08/04 04:00:17;;;;;;;;;2.00;2.00;;;;;;;;5029062;28;8854;-70
2023/08/04 04:02:43;;;;;;;;;2.67;1.00;;;;;;;;5029283;28;8792;-70
2023/08/04 04:05:08;;;;;;;;;2.00;2.00;;;;;;;;5029257;28;8784;-70
2023/08/04 04:07:33;;;;;;;;;2.00;2.00;;;;;;;;5028994;28;8828;-70
2023/08/04 04:09:59;;;;;;;;;3.00;3.00;;;;;;;;5029007;28;8942;-70
2023/08/04 04:12:24;;;;;;;;;2.00;2.00;;;;;;;;5029117;28;8873;-71
2023/08/04 04:14:49;;;;;;;;;3.00;3.00;;;;;;;;5029098;28;8807;-71
2023/08/04 04:17:14;;;;;;;;;1.33;1.33;;;;;;;;5029305;28;9645;-71
2023/08/04 04:19:40;;;;;;;;;3.67;2.00;;;;;;;;5031107;28;8849;-71
2023/08/04 04:22:06;;;;;;;;;3.00;3.00;;;;;;;;5033313;28;8784;-71
2023/08/04 04:24:31;;;;;;;;;5.33;3.33;;;;;;;;5033213;28;8827;-70
2023/08/04 04:26:56;;;;;;;;;5.33;2.33;;;;;;;;5032815;28;8792;-70
2023/08/04 06:34:30;;;;;;;;;4.67;4.33;;;;;;;;5103441;27;13209;-67
2023/08/04 07:24:01;;;;;;;;;3.50;2.75;;;;;;;;5123670;27;14350;-68
2023/08/04 07:26:27;;;;;;;;;2.67;2.33;;;;;;;;5126719;27;8830;-65
2023/08/04 07:28:52;;;;;;;;;7.33;4.00;;;;;;;;5125420;27;8999;-66
2023/08/04 07:33:12;;;;;;;;;3.00;2.00;;;;;;;;5103068;27;13196;-66
2023/08/04 07:35:37;;;;;;;;;3.33;3.00;;;;;;;;5106477;28;8838;-66
2023/08/04 07:38:03;;;;;;;;;7.33;5.33;;;;;;;;5106148;28;8843;-67
2023/08/04 07:40:28;;;;;;;;;1.00;1.00;;;;;;;;5104203;28;8950;-67
2023/08/04 07:42:53;;;;;;;;;5.00;1.00;;;;;;;;5106764;28;8823;-67
2023/08/04 07:45:19;;;;;;;;;2.00;2.00;;;;;;;;5106061;28;8907;-67
2023/08/04 07:47:44;;;;;;;;;3.00;2.00;;;;;;;;5125076;27;8821;-67
2023/08/04 07:50:10;;;;;;;;;4.00;3.00;;;;;;;;5126922;27;8793;-67
2023/08/04 07:52:35;;;;;;;;;3.67;2.67;;;;;;;;5126204;27;8902;-67
2023/08/04 07:55:01;;;;;;;;;2.67;1.67;;;;;;;;5126661;27;8784;-67
2023/08/04 07:57:26;;;;;;;;;4.67;3.00;;;;;;;;5126261;27;9552;-67
2023/08/04 07:59:51;;;;;;;;;2.00;2.00;;;;;;;;5126011;27;8793;-66
2023/08/04 08:02:17;;;;;;;;;4.00;3.67;;;;;;;;5126873;27;8785;-66
2023/08/04 08:04:42;;;;;;;;;3.00;2.67;;;;;;;;5106374;27;8812;-66
2023/08/04 08:07:08;;;;;;;;;3.67;3.00;;;;;;;;5090010;28;8826;-67
2023/08/04 08:09:33;;;;;;;;;1.67;1.00;;;;;;;;5085593;28;8822;-66
2023/08/04 08:11:59;;;;;;;;;2.33;2.00;;;;;;;;5085671;28;8991;-67
2023/08/04 08:14:24;;;;;;;;;4.00;3.67;;;;;;;;5084076;28;8826;-67
2023/08/04 08:16:50;;;;;;;;;1.00;1.00;;;;;;;;5107608;27;8789;-67
2023/08/04 08:19:15;;;;;;;;;2.67;2.00;;;;;;;;5125795;27;8816;-67
2023/08/04 08:21:41;;;;;;;;;3.00;2.00;;;;;;;;5126220;27;9528;-67
2023/08/04 08:24:07;;;;;;;;;6.25;3.00;;;;;;;;5126472;27;8816;-67
2023/08/04 08:26:32;;;;;;;;;3.00;3.00;;;;;;;;5126044;27;8797;-66
2023/08/04 08:28:58;;;;;;;;;4.33;3.00;;;;;;;;5125860;27;8789;-66
2023/08/04 08:31:23;;;;;;;;;2.00;2.00;;;;;;;;5125701;27;8829;-67
2023/08/04 08:33:48;;;;;;;;;3.33;3.00;;;;;;;;5125073;27;8802;-67
2023/08/04 08:36:14;;;;;;;;;2.00;2.00;;;;;;;;5125873;27;8854;-67
2023/08/04 08:38:39;;;;;;;;;2.00;2.00;;;;;;;;5125762;27;8797;-67
2023/08/04 08:41:04;;;;;;;;;3.33;3.00;;;;;;;;5125829;27;8878;-67
2023/08/04 08:43:30;;;;;;;;;3.67;2.00;;;;;;;;5118129;27;8823;-67
2023/08/04 08:45:57;;;;;;;;;2.00;2.00;;;;;;;;5111789;28;8805;-67
2023/08/04 08:48:23;;;;;;;;;2.75;2.75;;;;;;;;5110785;28;8824;-66
2023/08/04 08:50:55;;;;;;;;;1.75;1.75;;;;;;;;5111863;28;8873;-67
2023/08/04 08:53:23;;;;;;;;;4.00;3.00;;;;;;;;5111954;28;9553;-67
2023/08/04 08:55:48;;;;;;;;;3.25;2.25;;;;;;;;5111824;28;8789;-66
2023/08/04 08:58:14;;;;;;;;;2.33;2.33;;;;;;;;5111776;28;8841;-67
2023/08/04 09:00:40;;;;;;;;;3.00;3.00;;;;;;;;5111369;28;8793;-66
2023/08/04 09:03:05;;;;;;;;;2.00;2.00;;;;;;;;5110563;28;8937;-69
2023/08/04 09:05:32;;;;;;;;;4.00;4.00;;;;;;;;5111470;28;8893;-68
2023/08/04 09:07:57;;;;;;;;;5.50;3.25;;;;;;;;5111533;28;9507;-67
2023/08/04 09:10:23;;;;;;;;;4.00;3.67;;;;;;;;5111878;28;8820;-70
2023/08/04 09:12:49;;;;;;;;;3.00;3.00;;;;;;;;5111529;28;8864;-68
2023/08/04 09:15:15;;;;;;;;;2.75;2.75;;;;;;;;5111544;28;8801;-68
2023/08/04 09:17:41;;;;;;;;;4.00;3.00;;;;;;;;5109911;28;8812;-67
2023/08/04 09:20:07;;;;;;;;;3.00;3.00;;;;;;;;5076820;28;8852;-67
2023/08/04 09:22:37;;;;;;;;;3.00;3.00;;;;;;;;5090532;28;8796;-67
2023/08/04 09:25:03;;;;;;;;;4.00;3.00;;;;;;;;5090480;28;8827;-67
2023/08/04 09:27:30;;;;;;;;;3.50;2.00;;;;;;;;5087871;28;8946;-67
2023/08/04 09:29:59;;;;;;;;;3.75;3.00;;;;;;;;5090279;28;8814;-68
2023/08/04 09:32:24;;;;;;;;;3.50;2.75;;;;;;;;5090108;28;8837;-75
2023/08/04 09:35:03;;;;;;;;;3.00;3.00;;;;;;;;5064113;28;9910;-67
2023/08/04 09:37:35;;;;;;;;;5.50;3.00;;;;;;;;5050255;28;8802;-67
2023/08/04 09:40:04;;;;;;;;;1.75;1.75;;;;;;;;5049855;28;8882;-67
2023/08/04 09:42:30;;;;;;;;;4.00;4.00;;;;;;;;5049832;28;8899;-67
2023/08/04 12:43:56;;;;;;;;;0.50;0.50;;;;;;;;5166492;27;13295;-66
2023/08/04 12:46:21;;;;;;;;;2.00;0.33;;;;;;;;5147715;27;8810;-66
2023/08/04 12:48:47;;;;;;;;;4.67;1.00;;;;;;;;5126832;27;8816;-65
2023/08/04 12:51:12;;;;;;;;;0.67;0.00;;;;;;;;5143249;27;8814;-66
2023/08/04 12:53:37;;;;;;;;;0.00;0.00;;;;;;;;5146095;27;8886;-66
2023/08/04 12:56:03;;;;;;;;;1.00;0.00;;;;;;;;5147180;27;8836;-66
2023/08/04 12:58:28;;;;;;;;;0.00;0.00;;;;;;;;5148074;27;8896;-66
2023/08/04 13:00:54;;;;;;;;;0.00;0.00;;;;;;;;5129052;27;8825;-66
2023/08/04 13:03:19;;;;;;;;;1.00;0.00;;;;;;;;5147424;27;8802;-67
2023/08/04 13:05:44;;;;;;;;;1.00;0.00;;;;;;;;5147531;27;8774;-66
2023/08/04 13:08:10;;;;;;;;;1.00;0.00;;;;;;;;5147336;27;8786;-65
2023/08/04 13:10:35;;;;;;;;;0.00;0.00;;;;;;;;5147666;27;8773;-66
2023/08/04 13:13:00;;;;;;;;;1.00;0.00;;;;;;;;5147385;27;9596;-66
2023/08/04 13:15:26;;;;;;;;;1.00;0.00;;;;;;;;5147118;27;8790;-67
2023/08/04 13:17:52;;;;;;;;;0.00;0.00;;;;;;;;5147451;27;8801;-68
2023/08/04 13:20:17;;;;;;;;;0.00;0.00;;;;;;;;5128487;27;8821;-66
2023/08/04 13:22:42;;;;;;;;;0.67;0.00;;;;;;;;5146902;27;8864;-67
2023/08/04 13:25:08;;;;;;;;;0.00;0.00;;;;;;;;5147016;27;8790;-66
2023/08/04 13:27:33;;;;;;;;;0.00;0.00;;;;;;;;5147325;27;8883;-66
2023/08/04 13:29:59;;;;;;;;;1.00;1.00;;;;;;;;5146815;27;8797;-69
2023/08/04 13:32:24;;;;;;;;;3.00;2.67;;;;;;;;5146779;27;8802;-66
2023/08/04 13:34:50;;;;;;;;;2.67;1.00;;;;;;;;5146984;27;8782;-67
2023/08/04 13:37:15;;;;;;;;;2.33;0.33;;;;;;;;5143811;27;8848;-69
2023/08/04 13:39:40;;;;;;;;;0.00;0.00;;;;;;;;5146873;27;9552;-66
2023/08/04 13:42:06;;;;;;;;;2.00;1.33;;;;;;;;5147226;27;8972;-67
2023/08/04 13:44:31;;;;;;;;;2.67;0.00;;;;;;;;5147899;27;9578;-66
2023/08/04 13:46:57;;;;;;;;;2.00;2.00;;;;;;;;5147077;27;8797;-67
2023/08/04 13:49:22;;;;;;;;;2.00;0.33;;;;;;;;5147224;27;8829;-67
2023/08/04 13:51:48;;;;;;;;;1.33;0.33;;;;;;;;5146986;27;8805;-66
2023/08/04 13:54:14;;;;;;;;;0.00;0.00;;;;;;;;5139625;27;8785;-66
2023/08/04 13:56:40;;;;;;;;;2.00;0.00;;;;;;;;5133065;27;11432;-66
2023/08/04 13:59:06;;;;;;;;;1.00;0.00;;;;;;;;5114846;27;8790;-66
2023/08/04 14:01:31;;;;;;;;;0.00;0.00;;;;;;;;5133311;27;9562;-67
2023/08/04 14:03:56;;;;;;;;;1.00;1.00;;;;;;;;5133206;27;8798;-66
2023/08/04 14:06:22;;;;;;;;;0.67;0.67;;;;;;;;5133628;27;8778;-67
2023/08/04 14:08:47;;;;;;;;;0.00;0.00;;;;;;;;5133065;27;8770;-67
2023/08/04 14:11:12;;;;;;;;;2.00;0.33;;;;;;;;5133185;27;8800;-66
2023/08/04 14:13:38;;;;;;;;;3.00;2.67;;;;;;;;5133040;27;8798;-67
2023/08/04 14:16:11;;;;;;;;;0.00;0.00;;;;;;;;5114173;27;8806;-67
2023/08/04 14:18:36;;;;;;;;;2.00;2.00;;;;;;;;5133067;27;8817;-66
2023/08/04 14:21:03;;;;;;;;;1.00;0.67;;;;;;;;5132724;27;8774;-67
2023/08/04 14:23:28;;;;;;;;;1.50;0.75;;;;;;;;5132829;27;8866;-67
2023/08/04 14:25:53;;;;;;;;;0.00;0.00;;;;;;;;5132906;27;8781;-67
2023/08/04 14:28:20;;;;;;;;;0.00;0.00;;;;;;;;5132576;27;8804;-67
2023/08/04 14:30:46;;;;;;;;;1.75;0.25;;;;;;;;5113921;27;8826;-66
2023/08/04 14:33:11;;;;;;;;;1.00;1.00;;;;;;;;5132783;27;8894;-67
2023/08/04 14:35:36;;;;;;;;;1.00;0.67;;;;;;;;5132541;27;8854;-68
2023/08/04 14:38:02;;;;;;;;;9.33;6.00;;;;;;;;5132935;27;8777;-67
2023/08/04 14:40:27;;;;;;;;;3.67;2.00;;;;;;;;5132678;27;8808;-66
2023/08/04 14:42:52;;;;;;;;;0.00;0.00;;;;;;;;5132895;27;8813;-67
2023/08/04 14:45:18;;;;;;;;;2.00;0.33;;;;;;;;5132258;27;8915;-65
2023/08/04 14:47:43;;;;;;;;;1.00;1.00;;;;;;;;5132115;27;8816;-67
2023/08/04 14:50:09;;;;;;;;;1.00;1.00;;;;;;;;5132301;27;8789;-67
2023/08/04 14:52:34;;;;;;;;;1.00;0.00;;;;;;;;5132365;27;8801;-67
2023/08/04 14:54:59;;;;;;;;;2.67;0.00;;;;;;;;5132225;27;8774;-67
2023/08/04 14:57:24;;;;;;;;;0.00;0.00;;;;;;;;5132156;27;8774;-67
2023/08/04 14:59:52;;;;;;;;;1.33;0.00;;;;;;;;5113521;27;8818;-67
2023/08/04 15:02:17;;;;;;;;;1.00;1.00;;;;;;;;5131871;27;8981;-67
2023/08/04 15:04:43;;;;;;;;;1.00;1.00;;;;;;;;5131726;27;9524;-67
2023/08/04 15:07:09;;;;;;;;;0.67;0.00;;;;;;;;5131165;27;8786;-66
2023/08/04 15:09:34;;;;;;;;;2.33;2.00;;;;;;;;5131893;27;8792;-67
2023/08/04 15:11:59;;;;;;;;;1.00;0.00;;;;;;;;5131767;27;8806;-67
2023/08/04 15:14:26;;;;;;;;;1.00;1.00;;;;;;;;5131828;27;8812;-67
2023/08/04 15:16:54;;;;;;;;;0.50;0.00;;;;;;;;5131489;27;8806;-67
2023/08/04 15:19:19;;;;;;;;;0.25;0.00;;;;;;;;5131546;27;8773;-67
2023/08/04 15:21:45;;;;;;;;;1.33;0.00;;;;;;;;5131708;27;8797;-67
2023/08/04 15:24:10;;;;;;;;;0.33;0.00;;;;;;;;5131648;27;8813;-67
2023/08/04 15:26:35;;;;;;;;;1.00;0.00;;;;;;;;5131581;27;8814;-67
2023/08/04 15:29:01;;;;;;;;;0.00;0.00;;;;;;;;5113069;27;8867;-66
2023/08/04 15:31:26;;;;;;;;;0.67;0.00;;;;;;;;5131519;27;8805;-67
2023/08/04 15:33:51;;;;;;;;;0.00;0.00;;;;;;;;5131475;27;8882;-67
2023/08/04 15:36:17;;;;;;;;;0.00;0.00;;;;;;;;5131348;27;8832;-67
2023/08/04 15:38:42;;;;;;;;;0.00;0.00;;;;;;;;5131427;27;8808;-67
2023/08/04 15:41:08;;;;;;;;;0.00;0.00;;;;;;;;5131307;27;8774;-67
2023/08/04 15:43:37;;;;;;;;;0.00;0.00;;;;;;;;5131608;27;8860;-66
2023/08/04 15:46:03;;;;;;;;;0.00;0.00;;;;;;;;5130820;27;8806;-66
2023/08/04 15:48:28;;;;;;;;;0.00;0.00;;;;;;;;5112596;27;8828;-67
2023/08/04 15:50:59;;;;;;;;;1.00;1.00;;;;;;;;5131140;27;8824;-67
2023/08/04 15:53:24;;;;;;;;;1.50;0.00;;;;;;;;5131104;27;8813;-67
2023/08/04 15:55:50;;;;;;;;;1.00;0.00;;;;;;;;5131095;27;8792;-67
2023/08/04 15:58:15;;;;;;;;;0.00;0.00;;;;;;;;5112583;27;8898;-67
2023/08/04 16:00:40;;;;;;;;;1.00;0.00;;;;;;;;5112439;27;9500;-67
2023/08/04 16:03:06;;;;;;;;;2.33;1.00;;;;;;;;5130993;27;8862;-68
2023/08/04 16:05:31;;;;;;;;;0.67;0.00;;;;;;;;5130993;27;8762;-67
2023/08/04 16:07:56;;;;;;;;;0.00;0.00;;;;;;;;5131231;27;8790;-67
2023/08/04 16:10:22;;;;;;;;;3.00;2.00;;;;;;;;5130867;27;9545;-67
2023/08/04 16:12:47;;;;;;;;;3.00;2.00;;;;;;;;5130844;27;8828;-67
2023/08/04 16:15:13;;;;;;;;;2.00;1.67;;;;;;;;5112281;27;8826;-66
2023/08/04 16:17:38;;;;;;;;;2.67;2.00;;;;;;;;5130132;27;8798;-67
2023/08/04 16:20:04;;;;;;;;;2.33;1.00;;;;;;;;5130606;27;8762;-67
2023/08/04 16:22:29;;;;;;;;;2.67;0.33;;;;;;;;5130628;27;8794;-67
2023/08/04 16:24:55;;;;;;;;;0.00;0.00;;;;;;;;5130696;27;8778;-67
2023/08/04 16:27:20;;;;;;;;;0.00;0.00;;;;;;;;5130481;27;8774;-67
2023/08/04 16:29:46;;;;;;;;;0.00;0.00;;;;;;;;5130808;27;8848;-67
2023/08/04 16:32:12;;;;;;;;;1.00;1.00;;;;;;;;5130187;27;8817;-67
2023/08/04 16:34:37;;;;;;;;;1.00;1.00;;;;;;;;5130515;27;8990;-66
2023/08/04 16:37:03;;;;;;;;;0.00;0.00;;;;;;;;5130585;27;8862;-66
2023/08/04 16:39:29;;;;;;;;;2.00;0.33;;;;;;;;5130481;27;8770;-67
2023/08/04 16:41:55;;;;;;;;;0.75;0.00;;;;;;;;5130371;27;8814;-67
2023/08/04 16:44:20;;;;;;;;;0.33;0.00;;;;;;;;5130910;27;8786;-67
2023/08/04 16:46:45;;;;;;;;;6.00;3.00;;;;;;;;5111470;27;9521;-68
2023/08/04 16:49:11;;;;;;;;;1.00;1.00;;;;;;;;5130311;27;8814;-68
2023/08/04 16:51:36;;;;;;;;;1.00;1.00;;;;;;;;5130409;27;8837;-67
2023/08/04 16:54:01;;;;;;;;;0.67;0.67;;;;;;;;5130478;27;8794;-67
2023/08/04 16:56:27;;;;;;;;;0.00;0.00;;;;;;;;5111730;27;8809;-68
2023/08/04 16:58:52;;;;;;;;;0.00;0.00;;;;;;;;5130371;27;8797;-67
2023/08/04 17:01:17;;;;;;;;;0.00;0.00;;;;;;;;5111612;27;8790;-67
2023/08/04 17:03:42;;;;;;;;;0.33;0.33;;;;;;;;5130196;27;8940;-67
2023/08/04 17:06:11;;;;;;;;;0.00;0.00;;;;;;;;5130400;27;8782;-67
2023/08/04 17:08:36;;;;;;;;;1.75;0.00;;;;;;;;5130212;27;8805;-67
2023/08/04 17:11:02;;;;;;;;;1.00;1.00;;;;;;;;5130188;27;8781;-67
2023/08/04 17:13:27;;;;;;;;;0.50;0.00;;;;;;;;5130184;27;8828;-67
2023/08/04 17:15:52;;;;;;;;;0.00;0.00;;;;;;;;5129972;27;8798;-66
2023/08/04 17:18:18;;;;;;;;;0.00;0.00;;;;;;;;5130333;27;8817;-66
2023/08/04 17:20:52;;;;;;;;;14.00;11.33;;;;;;;;5130268;27;8855;-66
2023/08/04 17:23:17;;;;;;;;;45.50;35.50;;;;;;;;5130129;27;9527;-67
2023/08/04 17:25:42;;;;;;;;;1.00;0.00;;;;;;;;5130059;27;10511;-67
2023/08/04 17:28:08;;;;;;;;;0.00;0.00;;;;;;;;5129762;27;8828;-66
2023/08/04 17:30:33;;;;;;;;;2.00;1.00;;;;;;;;5133015;27;8890;-67
2023/08/04 17:32:58;;;;;;;;;2.00;1.00;;;;;;;;5133532;27;8798;-67
2023/08/04 17:35:24;;;;;;;;;3.00;2.00;;;;;;;;5133887;27;8782;-68
2023/08/04 17:37:50;;;;;;;;;3.67;3.67;;;;;;;;5115316;27;8797;-67
2023/08/04 17:40:15;;;;;;;;;1.33;1.33;;;;;;;;5133790;27;8889;-67
2023/08/04 17:42:41;;;;;;;;;1.00;1.00;;;;;;;;5134193;27;8845;-67
2023/08/04 17:45:06;;;;;;;;;1.00;1.00;;;;;;;;5135345;27;8782;-67
2023/08/04 17:47:32;;;;;;;;;1.00;0.67;;;;;;;;5115304;27;9738;-67
2023/08/04 17:49:57;;;;;;;;;0.00;0.00;;;;;;;;5133754;27;8832;-67
2023/08/04 17:52:23;;;;;;;;;2.00;0.00;;;;;;;;5133628;27;8828;-67
2023/08/04 17:54:48;;;;;;;;;0.00;0.00;;;;;;;;5114957;27;8790;-67
2023/08/04 17:57:14;;;;;;;;;0.67;0.00;;;;;;;;5133557;27;8805;-67
2023/08/04 17:59:39;;;;;;;;;0.33;0.33;;;;;;;;5133728;27;8896;-67
2023/08/04 18:02:05;;;;;;;;;2.00;1.00;;;;;;;;5133152;27;8962;-67
2023/08/04 18:04:31;;;;;;;;;0.00;0.00;;;;;;;;5133533;27;8766;-67
2023/08/04 18:06:56;;;;;;;;;1.67;1.00;;;;;;;;5133462;27;8809;-67
2023/08/04 18:09:22;;;;;;;;;1.00;0.00;;;;;;;;5133424;27;8774;-67
2023/08/04 18:11:47;;;;;;;;;1.00;1.00;;;;;;;;5133119;27;8793;-67
2023/08/04 18:14:12;;;;;;;;;0.67;0.00;;;;;;;;5133368;27;8758;-67
2023/08/04 18:16:38;;;;;;;;;4.67;1.67;;;;;;;;5132836;27;8786;-67
2023/08/04 18:19:03;;;;;;;;;3.33;2.67;;;;;;;;5133338;27;9580;-67
2023/08/04 18:21:28;;;;;;;;;1.67;1.00;;;;;;;;5132992;27;8813;-67
2023/08/04 18:23:54;;;;;;;;;1.33;1.00;;;;;;;;5132977;27;8797;-67
2023/08/04 18:26:19;;;;;;;;;0.00;0.00;;;;;;;;5132884;27;9010;-68
2023/08/04 18:28:45;;;;;;;;;1.67;0.67;;;;;;;;5132861;27;8801;-67
2023/08/04 18:31:10;;;;;;;;;2.00;1.00;;;;;;;;5114141;27;8786;-67
2023/08/04 18:33:36;;;;;;;;;1.00;1.00;;;;;;;;5132759;27;8813;-66
2023/08/04 18:36:01;;;;;;;;;1.00;1.00;;;;;;;;5114305;27;8947;-67
2023/08/04 18:38:27;;;;;;;;;1.00;1.00;;;;;;;;5132874;27;8794;-66
2023/08/04 18:40:53;;;;;;;;;1.00;1.00;;;;;;;;5132880;27;9509;-66
2023/08/04 18:43:18;;;;;;;;;2.00;2.00;;;;;;;;5137498;22;8860;-69
2023/08/04 18:45:43;;;;;;;;;37.25;34.25;;;;;;;;5070809;28;8831;-69
2023/08/04 18:48:09;;;;;;;;;18.00;17.75;;;;;;;;5072405;28;8774;-68
2023/08/04 18:50:34;;;;;;;;;4.00;1.00;;;;;;;;5072597;28;8902;-68
2023/08/04 18:52:59;;;;;;;;;5.00;5.00;;;;;;;;5072447;28;8809;-68
2023/08/04 18:55:24;;;;;;;;;4.33;4.33;;;;;;;;5072285;28;8770;-68
2023/08/04 18:57:50;;;;;;;;;4.33;3.00;;;;;;;;5072320;28;8867;-68
2023/08/04 19:00:15;;;;;;;;;2.00;2.00;;;;;;;;5072062;28;8781;-69
2023/08/04 19:02:40;;;;;;;;;1.33;1.33;;;;;;;;5072059;28;9637;-68
2023/08/04 19:05:06;;;;;;;;;1.00;1.00;;;;;;;;5072297;28;8793;-69
2023/08/04 19:07:31;;;;;;;;;1.00;1.00;;;;;;;;5054051;28;8805;-68
2023/08/04 19:09:56;;;;;;;;;2.00;1.00;;;;;;;;5072456;28;8794;-68
2023/08/04 19:12:22;;;;;;;;;3.00;3.00;;;;;;;;5071958;28;8941;-68
2023/08/04 19:14:47;;;;;;;;;27.00;26.00;;;;;;;;5071684;28;9632;-68
2023/08/04 19:17:12;;;;;;;;;2.00;1.00;;;;;;;;5071700;28;8808;-68
2023/08/04 19:19:38;;;;;;;;;1.67;0.67;;;;;;;;5071846;28;8766;-68
2023/08/04 19:22:03;;;;;;;;;1.00;0.00;;;;;;;;5071755;28;8790;-68
2023/08/04 19:24:29;;;;;;;;;2.67;1.00;;;;;;;;5071729;28;8855;-69
2023/08/04 19:26:54;;;;;;;;;0.00;0.00;;;;;;;;5071733;28;8786;-68
2023/08/04 19:29:19;;;;;;;;;2.00;1.00;;;;;;;;5071604;28;9524;-69
2023/08/04 19:31:45;;;;;;;;;0.33;0.00;;;;;;;;5071361;28;8854;-68
2023/08/04 19:34:11;;;;;;;;;0.00;0.00;;;;;;;;5053664;28;8858;-69
2023/08/04 19:36:36;;;;;;;;;0.00;0.00;;;;;;;;5071540;28;9629;-68
2023/08/04 19:39:02;;;;;;;;;2.67;1.00;;;;;;;;5071499;28;9007;-68
2023/08/04 19:41:27;;;;;;;;;1.00;1.00;;;;;;;;5053426;28;8836;-68
2023/08/04 19:43:52;;;;;;;;;0.00;0.00;;;;;;;;5071614;28;9567;-69
2023/08/04 19:46:18;;;;;;;;;0.00;0.00;;;;;;;;5071228;28;8794;-69
2023/08/04 19:48:43;;;;;;;;;1.00;0.00;;;;;;;;5053193;28;8801;-69
2023/08/04 19:51:10;;;;;;;;;0.00;0.00;;;;;;;;5053237;28;8806;-69
2023/08/04 19:53:36;;;;;;;;;1.67;0.00;;;;;;;;5070882;28;8802;-69
2023/08/04 19:56:01;;;;;;;;;0.00;0.00;;;;;;;;5071254;28;9655;-69
2023/08/04 19:58:27;;;;;;;;;0.00;0.00;;;;;;;;5053122;28;8936;-70
2023/08/04 20:00:56;;;;;;;;;3.00;2.00;;;;;;;;5070806;28;8782;-69
2023/08/04 20:03:22;;;;;;;;;13.00;10.50;;;;;;;;5052977;28;8825;-68
2023/08/04 20:05:47;;;;;;;;;1.00;1.00;;;;;;;;5070863;28;9825;-69
2023/08/04 20:08:13;;;;;;;;;0.33;0.33;;;;;;;;5070918;28;8805;-69
2023/08/04 20:10:38;;;;;;;;;1.67;1.33;;;;;;;;5071115;28;8793;-69
2023/08/04 20:13:03;;;;;;;;;3.25;3.25;;;;;;;;5070635;28;8924;-68
2023/08/04 20:15:29;;;;;;;;;0.33;0.33;;;;;;;;5070901;28;9640;-68
2023/08/04 20:17:55;;;;;;;;;0.67;0.00;;;;;;;;5070453;28;9528;-68
2023/08/04 20:20:20;;;;;;;;;1.67;1.00;;;;;;;;5052743;28;8794;-69
2023/08/04 20:22:45;;;;;;;;;0.00;0.00;;;;;;;;5070841;28;8782;-69
2023/08/04 20:25:10;;;;;;;;;0.33;0.00;;;;;;;;5070757;28;8822;-69
2023/08/04 20:27:36;;;;;;;;;0.00;0.00;;;;;;;;5070783;28;8789;-68
2023/08/04 20:30:01;;;;;;;;;2.00;0.00;;;;;;;;5070456;28;8904;-68
2023/08/04 20:32:26;;;;;;;;;0.00;0.00;;;;;;;;5070437;28;8833;-68
2023/08/04 20:34:52;;;;;;;;;0.00;0.00;;;;;;;;5070605;28;8790;-68
2023/08/04 20:37:17;;;;;;;;;0.00;0.00;;;;;;;;5070661;28;8860;-68
2023/08/04 20:39:42;;;;;;;;;0.00;0.00;;;;;;;;5070672;28;8766;-68